Flight Track Log - Related Links

Times and Time Zones

All times are in EDT time to prevent confusion due to time zone crossing. See the N762NC flight status page for this flight to view local times or setup timezone preferences in your user account.

Time Position Orientation Groundspeed Altitude Reporting Facility
EDT Latitude Longitude Course Direction KTS MPH feet Rate Location/Type
Thu 09:34:07 PM 33.6333 -84.4667 83° East 180 207 2,100  Level Atlanta TRACON
Thu 09:35:01 PM 33.6000 -84.5333 239° Southwest 270 311 3,900 2,737 Climbing Atlanta TRACON
Thu 09:36:01 PM 33.5500 -84.6000 228° Southwest 292 336 7,300 2,950 Climbing Atlanta TRACON
Thu 09:37:00 PM 33.5896 -83.9572 90° East  Level Estimated
Thu 09:37:01 PM 33.4667 -84.5833 171° South 302 348 9,800  Level Atlanta TRACON
Thu 09:37:53 PM 33.4469 -84.5169 110° East 315 362 11,200 1,286 Climbing Atlanta Center
Thu 09:38:00 PM 33.5776 -83.8397 86° East  Level Estimated
Thu 09:38:53 PM 33.4597 -84.4000 83° East 350 403 12,200  Level Atlanta Center
Thu 09:39:00 PM 33.5896 -83.7221 83° East  Level FlightAware Approximate
Thu 09:39:53 PM 33.4808 -84.2753 78° East 375 432 14,100  Level Atlanta Center
Thu 09:40:53 PM 33.5042 -84.1408 78° East 397 457 16,100 1,500 Climbing Atlanta Center
Thu 09:41:53 PM 33.5228 -83.9914 81° East 406 467 17,100 450 Climbing Atlanta Center
Thu 09:42:53 PM 33.5478 -83.8544 78° East 412 474 17,000 -50 Descending Atlanta Center
Thu 09:43:53 PM 33.5642 -83.7097 82° East 418 481 17,000  Level Atlanta Center
Thu 09:44:53 PM 33.5806 -83.5700 82° East 425 489 17,000  Level Atlanta Center
Thu 09:45:53 PM 33.5944 -83.4253 83° East 425 489 17,000  Level Atlanta Center
Thu 09:46:53 PM 33.6042 -83.2831 85° East 425 489 17,000  Level Atlanta Center
Thu 09:47:53 PM 33.6156 -83.1333 85° East 430 495 17,000 -150 Level Atlanta Center
Thu 09:48:53 PM 33.6144 -82.9886 90° East 436 502 16,700 -1,700 Descending Atlanta Center
Thu 09:49:53 PM 33.6069 -82.8492 94° East 436 502 13,600 -2,750 Descending Atlanta Center
Thu 09:50:53 PM 33.5992 -82.7169 94° East 412 474 11,200 -1,700 Descending Atlanta Center
Thu 09:51:53 PM 33.5772 -82.6075 104° East 384 442 10,200 -750 Descending Atlanta Center
Thu 09:52:53 PM 33.5467 -82.5058 110° East 350 403 9,700 -1,000 Descending Atlanta Center
Thu 09:53:53 PM 33.5164 -82.4167 112° Southeast 316 364 8,200 -1,550 Descending Atlanta Center
Thu 09:54:53 PM 33.4817 -82.3303 116° Southeast 294 338 6,600 -1,600 Descending Atlanta Center
Thu 09:55:53 PM 33.4514 -82.2461 113° Southeast 281 323 5,000 -1,550 Descending Atlanta Center
Thu 09:56:53 PM 33.4208 -82.1647 114° Southeast 275 316 3,500 -1,200 Descending Atlanta Center
Thu 09:57:53 PM 33.3886 -82.0958 119° Southeast 261 300 2,600 -900 Descending Atlanta Center

Login

Don't have an account? Register now (free) for customized features, flight alerts, and more!